Sign-in with your pilot id or email, or register

ICAO: LTAI Name / Country: ANTALYA / Turkey
Latitude: 36.8987 Longitude: 30.8005
Total Arrivals:
Strict Standards: Non-static method AirportData::getarrflights() should not be called statically, assuming $this from incompatible context in /var/www/customers/vh-7192/web/home/phpvms/core/templates/airport_info.tpl on line 18
2
Total Departures:
Strict Standards: Non-static method AirportData::getdeptflights() should not be called statically, assuming $this from incompatible context in /var/www/customers/vh-7192/web/home/phpvms/core/templates/airport_info.tpl on line 21
0
Latest Arrival: MTA628 (LOWS-LTAI) Laszlo Bartucz Latest Departure: (-)
Metar: LTAI 172220Z 35004KT CAVOK 21/18 Q1014 NOSIG
More info

Charts for LTAI


NOTAM


Warning: file_get_contents(http://api.vateud.net/notams/LTAI.json): failed to open stream: Redirection limit reached, aborting in /var/www/customers/vh-7192/web/home/phpvms/core/common/NOTAMSData.class.php on line 18

Warning: Invalid argument supplied for foreach() in /var/www/customers/vh-7192/web/home/phpvms/core/common/NOTAMSData.class.php on line 22

ANTALYA